createdAt,value
2023-01-30T00:00:13.036Z,40.97
2023-01-30T00:02:41.899Z,40.08
2023-01-30T00:05:10.245Z,42.08
2023-01-30T00:07:38.501Z,47.42
2023-01-30T00:10:07.095Z,38.80
2023-01-30T00:12:35.692Z,35.28
2023-01-30T00:15:04.801Z,36.45
2023-01-30T00:17:32.969Z,41.42
2023-01-30T00:20:01.263Z,43.92
2023-01-30T00:22:30.347Z,47.60
2023-01-30T00:24:58.416Z,37.70
2023-01-30T00:27:26.521Z,42.10
2023-01-30T00:30:02.837Z,39.22
2023-01-30T00:32:32.565Z,46.50
2023-01-30T00:35:00.771Z,42.38
2023-01-30T00:37:29.553Z,40.72
2023-01-30T00:39:58.916Z,49.72
2023-01-30T00:42:47.548Z,43.80
2023-01-30T00:45:34.297Z,42.13
2023-01-30T00:48:03.929Z,39.15
2023-01-30T00:50:42.648Z,33.28
2023-01-30T00:53:16.440Z,44.17
2023-01-30T00:55:45.738Z,44.47
2023-01-30T00:58:14.144Z,43.38
2023-01-30T01:00:42.548Z,40.72
2023-01-30T01:03:10.761Z,46.25
2023-01-30T01:05:38.698Z,35.75
2023-01-30T01:08:07.765Z,35.40
2023-01-30T01:10:36.033Z,39.28
2023-01-30T01:13:06.653Z,40.80
2023-01-30T01:15:35.495Z,35.70
2023-01-30T01:18:03.780Z,38.08
2023-01-30T01:20:32.567Z,34.78
2023-01-30T01:23:00.996Z,38.25
2023-01-30T01:25:29.213Z,44.97
2023-01-30T01:27:57.213Z,44.03
2023-01-30T01:30:25.399Z,41.78
2023-01-30T01:32:53.388Z,36.75
2023-01-30T01:35:21.426Z,40.58
2023-01-30T01:37:54.746Z,40.55
2023-01-30T01:40:42.340Z,42.00
2023-01-30T01:43:22.724Z,40.60
2023-01-30T01:46:18.507Z,36.40
2023-01-30T01:48:53.800Z,39.83
2023-01-30T01:51:42.705Z,42.60
2023-01-30T01:54:18.626Z,34.67
2023-01-30T01:56:48.696Z,33.85
2023-01-30T01:59:53.513Z,39.80
2023-01-30T02:02:22.038Z,38.38
2023-01-30T02:05:03.740Z,40.45
2023-01-30T02:07:55.027Z,37.50
2023-01-30T02:10:52.023Z,36.72
2023-01-30T02:13:20.200Z,33.40
2023-01-30T02:15:50.395Z,41.78
2023-01-30T02:18:19.551Z,29.52
2023-01-30T02:21:48.710Z,37.25
2023-01-30T02:25:08.293Z,36.30
2023-01-30T02:27:59.973Z,34.65
2023-01-30T02:30:34.444Z,35.65
2023-01-30T02:33:19.624Z,32.30
2023-01-30T02:35:57.379Z,34.40
2023-01-30T02:38:39.917Z,29.13
2023-01-30T02:41:20.142Z,26.33
2023-01-30T02:44:11.772Z,43.42
2023-01-30T02:47:04.136Z,40.15
2023-01-30T02:49:56.285Z,34.97
2023-01-30T02:52:27.777Z,35.05
2023-01-30T02:54:55.818Z,34.63
2023-01-30T02:57:26.524Z,31.52
2023-01-30T03:00:04.416Z,29.67
2023-01-30T03:03:15.776Z,32.58
2023-01-30T03:06:11.582Z,40.33
2023-01-30T03:08:51.392Z,31.58
2023-01-30T03:11:25.081Z,37.67
2023-01-30T03:14:02.720Z,27.80
2023-01-30T03:16:41.076Z,40.25
2023-01-30T03:19:13.943Z,39.40
2023-01-30T03:21:46.169Z,39.70
2023-01-30T03:24:15.028Z,37.90
2023-01-30T03:26:59.954Z,34.28
2023-01-30T03:29:28.223Z,35.70
2023-01-30T03:31:56.494Z,30.40
2023-01-30T03:34:24.766Z,35.78
2023-01-30T03:36:52.794Z,32.10
2023-01-30T03:39:21.571Z,27.35
2023-01-30T03:41:50.363Z,31.83
2023-01-30T03:44:19.119Z,34.75
2023-01-30T03:46:47.160Z,28.33
2023-01-30T03:49:15.388Z,26.55
2023-01-30T03:51:43.299Z,38.63
2023-01-30T03:54:11.215Z,32.22
2023-01-30T03:56:39.743Z,27.98
2023-01-30T03:59:08.715Z,28.58
2023-01-30T04:01:42.578Z,33.65
2023-01-30T04:04:11.457Z,29.92
2023-01-30T04:06:39.398Z,30.30
2023-01-30T04:09:07.876Z,25.80
2023-01-30T04:11:43.744Z,36.40
2023-01-30T04:14:12.590Z,24.58
2023-01-30T04:17:06.836Z,27.38
2023-01-30T04:19:58.208Z,32.40
2023-01-30T04:22:26.991Z,27.35
2023-01-30T04:24:54.934Z,29.75
2023-01-30T04:27:22.993Z,32.55
2023-01-30T04:30:11.788Z,24.52
2023-01-30T04:32:40.711Z,29.80
2023-01-30T04:35:10.867Z,23.98
2023-01-30T04:37:40.025Z,24.67
2023-01-30T04:40:10.660Z,29.67
2023-01-30T04:42:39.047Z,29.25
2023-01-30T04:45:30.479Z,32.45
2023-01-30T04:47:58.685Z,32.15
2023-01-30T04:50:26.968Z,30.70
2023-01-30T04:52:55.023Z,33.08
2023-01-30T04:55:22.925Z,30.17
2023-01-30T04:57:50.857Z,35.00
2023-01-30T05:00:19.496Z,35.47
2023-01-30T05:02:55.864Z,29.88
2023-01-30T05:05:25.453Z,29.63
2023-01-30T05:07:54.348Z,30.30
2023-01-30T05:10:22.507Z,29.63
2023-01-30T05:12:51.035Z,26.02
2023-01-30T05:15:19.423Z,26.05
2023-01-30T05:17:47.662Z,26.05
2023-01-30T05:20:16.274Z,27.90
2023-01-30T05:22:44.271Z,27.38
2023-01-30T05:25:12.360Z,30.25
2023-01-30T05:27:40.687Z,27.35
2023-01-30T05:30:09.868Z,23.25
2023-01-30T05:32:37.792Z,31.20
2023-01-30T05:35:06.855Z,24.55
2023-01-30T05:37:34.847Z,28.88
2023-01-30T05:40:02.975Z,23.85
2023-01-30T05:42:31.833Z,21.08
2023-01-30T05:44:59.778Z,25.98
2023-01-30T05:47:27.849Z,29.75
2023-01-30T05:49:56.110Z,30.77
2023-01-30T05:52:23.986Z,30.58
2023-01-30T05:54:51.983Z,26.92
2023-01-30T05:57:20.281Z,22.88
2023-01-30T05:59:48.518Z,20.92
2023-01-30T06:02:16.501Z,28.52
2023-01-30T06:04:44.713Z,28.17
2023-01-30T06:07:14.237Z,31.45
2023-01-30T06:09:42.375Z,22.25
2023-01-30T06:12:10.769Z,20.42
2023-01-30T06:14:38.964Z,24.95
2023-01-30T06:17:07.538Z,24.50
2023-01-30T06:19:35.851Z,24.98
2023-01-30T06:22:03.812Z,24.05
2023-01-30T06:24:31.840Z,31.02
2023-01-30T06:27:00.595Z,29.80
2023-01-30T06:29:28.763Z,31.08
2023-01-30T06:31:56.757Z,34.15
2023-01-30T06:34:25.155Z,39.90
2023-01-30T06:36:53.174Z,34.00
2023-01-30T06:39:21.180Z,30.52
2023-01-30T06:41:49.591Z,37.22
2023-01-30T06:44:18.377Z,32.13
2023-01-30T06:46:46.359Z,31.80
2023-01-30T06:49:14.559Z,32.08
2023-01-30T06:51:42.532Z,35.95
2023-01-30T06:54:10.562Z,30.80
2023-01-30T06:56:38.712Z,29.85
2023-01-30T06:59:06.701Z,25.08
2023-01-30T07:01:34.791Z,30.30
2023-01-30T07:04:03.957Z,29.83
2023-01-30T07:06:32.332Z,38.28
2023-01-30T07:09:00.268Z,38.00
2023-01-30T07:11:29.202Z,31.30
2023-01-30T07:13:58.054Z,35.80
2023-01-30T07:16:29.888Z,29.80
2023-01-30T07:18:59.008Z,35.28
2023-01-30T07:21:27.729Z,30.92
2023-01-30T07:23:55.865Z,34.67
2023-01-30T07:26:25.230Z,29.10
2023-01-30T07:28:53.390Z,37.22
2023-01-30T07:31:21.835Z,32.67
2023-01-30T07:33:50.232Z,38.42
2023-01-30T07:36:18.189Z,35.38
2023-01-30T07:38:49.816Z,37.08
2023-01-30T07:41:18.053Z,30.92
2023-01-30T07:43:46.282Z,36.55
2023-01-30T07:46:14.393Z,27.83
2023-01-30T07:48:45.790Z,34.33
2023-01-30T07:51:14.034Z,33.78
2023-01-30T07:53:42.098Z,31.25
2023-01-30T07:56:14.471Z,35.75
2023-01-30T07:58:42.419Z,34.30
2023-01-30T08:01:10.539Z,28.63
2023-01-30T08:03:38.681Z,24.02
2023-01-30T08:06:07.783Z,30.35
2023-01-30T08:08:36.098Z,28.88
2023-01-30T08:11:04.661Z,32.50
2023-01-30T08:13:35.774Z,34.78
2023-01-30T08:16:06.680Z,29.38
2023-01-30T08:18:35.925Z,30.52
2023-01-30T08:21:07.265Z,31.27
2023-01-30T08:23:38.629Z,33.53
2023-01-30T08:28:34.770Z,35.60
2023-01-30T08:31:02.937Z,32.90
2023-01-30T08:33:30.985Z,31.58
2023-01-30T08:36:00.626Z,26.83
2023-01-30T08:38:28.831Z,24.33
2023-01-30T08:40:58.118Z,27.45
2023-01-30T08:43:26.972Z,31.42
2023-01-30T08:45:57.146Z,29.63
2023-01-30T08:48:25.502Z,32.60
2023-01-30T08:50:55.502Z,31.65
2023-01-30T08:53:24.015Z,27.10
2023-01-30T08:55:53.725Z,34.17
2023-01-30T08:58:22.724Z,30.75
2023-01-30T09:00:51.008Z,27.95
2023-01-30T09:03:19.936Z,23.90
2023-01-30T09:05:48.531Z,28.55
2023-01-30T09:08:16.862Z,24.02
2023-01-30T09:10:44.995Z,34.13
2023-01-30T09:13:13.254Z,32.00
2023-01-30T09:15:45.648Z,25.70
2023-01-30T09:18:13.791Z,25.50
2023-01-30T09:20:41.767Z,26.58
2023-01-30T09:23:09.861Z,25.38
2023-01-30T09:25:38.252Z,27.63
2023-01-30T09:28:06.315Z,33.13
2023-01-30T09:30:34.923Z,28.92
2023-01-30T09:33:04.107Z,30.35
2023-01-30T09:35:32.467Z,24.00
2023-01-30T09:38:01.639Z,27.35
2023-01-30T09:40:32.916Z,21.80
2023-01-30T09:43:48.761Z,24.65
2023-01-30T09:46:29.460Z,24.15
2023-01-30T09:49:26.691Z,25.33
2023-01-30T09:52:09.879Z,28.00
2023-01-30T09:54:43.307Z,29.20
2023-01-30T09:57:22.686Z,25.17
2023-01-30T09:59:58.453Z,35.53
2023-01-30T10:02:41.814Z,34.08
2023-01-30T10:05:10.542Z,30.30
2023-01-30T10:08:14.960Z,26.42
2023-01-30T10:11:10.454Z,36.47
2023-01-30T10:14:08.287Z,28.30
2023-01-30T10:17:45.536Z,22.40
2023-01-30T10:20:32.309Z,22.88
2023-01-30T10:23:38.223Z,26.67
2023-01-30T10:26:23.219Z,27.45
2023-01-30T10:29:07.423Z,43.80
2023-01-30T10:31:56.862Z,26.48
2023-01-30T10:34:37.172Z,25.52
2023-01-30T10:37:33.175Z,24.35
2023-01-30T10:40:43.047Z,29.70
2023-01-30T10:43:37.286Z,27.08
2023-01-30T10:46:56.974Z,31.75
2023-01-30T10:49:44.595Z,33.13
2023-01-30T10:52:38.570Z,29.08
2023-01-30T10:55:37.589Z,30.77
2023-01-30T10:58:26.613Z,31.40
2023-01-30T11:01:53.774Z,33.85
2023-01-30T11:04:42.580Z,34.67
2023-01-30T11:07:12.034Z,28.83
2023-01-30T11:09:46.685Z,35.22
2023-01-30T11:12:16.078Z,32.22
2023-01-30T11:15:16.725Z,36.22
2023-01-30T11:17:46.073Z,36.72
2023-01-30T11:20:24.665Z,30.13
2023-01-30T11:23:07.650Z,39.55
2023-01-30T11:26:10.472Z,32.22
2023-01-30T11:28:48.660Z,29.50
2023-01-30T11:31:40.508Z,31.95
2023-01-30T11:34:16.999Z,28.08
2023-01-30T11:36:48.675Z,34.88
2023-01-30T11:42:03.807Z,32.72
2023-01-30T11:44:40.610Z,38.55
2023-01-30T11:47:27.761Z,30.50
2023-01-30T11:50:07.538Z,31.05
2023-01-30T11:52:50.557Z,33.42
2023-01-30T11:55:21.000Z,30.67
2023-01-30T11:57:56.313Z,33.28
2023-01-30T12:00:38.954Z,25.52
2023-01-30T12:03:18.271Z,27.65
2023-01-30T12:05:48.564Z,30.98
2023-01-30T12:08:31.184Z,29.37
2023-01-30T12:11:07.830Z,25.85
2023-01-30T12:13:43.673Z,26.45
2023-01-30T12:16:25.667Z,31.45
2023-01-30T12:19:19.156Z,34.00
2023-01-30T12:21:59.316Z,36.50
2023-01-30T12:25:27.474Z,33.80
2023-01-30T12:28:20.307Z,33.80
2023-01-30T12:31:24.853Z,35.45
2023-01-30T12:33:55.749Z,29.05
2023-01-30T12:36:38.825Z,31.95
2023-01-30T12:39:47.961Z,30.30
2023-01-30T12:42:48.525Z,28.17
2023-01-30T12:45:41.326Z,22.45
2023-01-30T12:48:13.110Z,25.23
2023-01-30T12:51:04.008Z,33.45
2023-01-30T12:53:50.681Z,26.80
2023-01-30T12:56:41.398Z,31.00
2023-01-30T12:59:21.646Z,37.38
2023-01-30T13:02:29.727Z,25.48
2023-01-30T13:05:33.802Z,30.88
2023-01-30T13:08:34.122Z,28.98
2023-01-30T13:11:41.561Z,24.02
2023-01-30T13:14:21.762Z,27.05
2023-01-30T13:17:20.698Z,39.53
2023-01-30T13:20:18.069Z,30.38
2023-01-30T13:23:13.231Z,27.20
2023-01-30T13:26:06.016Z,28.85
2023-01-30T13:28:44.729Z,25.13
2023-01-30T13:31:18.941Z,26.15
2023-01-30T13:33:51.306Z,35.33
2023-01-30T13:36:44.995Z,26.65
2023-01-30T13:39:54.668Z,22.85
2023-01-30T13:42:26.540Z,31.15
2023-01-30T13:44:56.360Z,40.30
2023-01-30T13:47:55.072Z,23.30
2023-01-30T13:51:06.151Z,30.52
2023-01-30T13:54:13.069Z,25.65
2023-01-30T13:57:38.215Z,23.77
2023-01-30T14:00:35.313Z,32.40
2023-01-30T14:03:06.924Z,29.38
2023-01-30T14:06:01.269Z,30.08
2023-01-30T14:08:48.656Z,27.65
2023-01-30T14:11:40.663Z,29.60
2023-01-30T14:14:40.835Z,30.63
2023-01-30T14:17:16.697Z,25.70
2023-01-30T14:19:57.393Z,32.13
2023-01-30T14:22:25.887Z,33.65
2023-01-30T14:25:30.878Z,30.58
2023-01-30T14:28:01.977Z,29.67
2023-01-30T14:30:48.724Z,26.02
2023-01-30T14:33:22.656Z,31.05
2023-01-30T14:36:03.224Z,29.85
2023-01-30T14:38:37.576Z,26.80
2023-01-30T14:41:05.842Z,32.53
2023-01-30T14:43:43.108Z,29.95
2023-01-30T14:46:20.568Z,27.05
2023-01-30T14:48:53.543Z,22.17
2023-01-30T14:51:48.256Z,31.85
2023-01-30T14:54:16.893Z,31.27
2023-01-30T14:57:01.118Z,33.15
2023-01-30T15:00:03.219Z,29.80
2023-01-30T15:02:49.196Z,24.75
2023-01-30T15:05:34.947Z,30.08
2023-01-30T15:08:17.111Z,21.80
2023-01-30T15:13:57.711Z,28.23
2023-01-30T15:17:34.679Z,27.13
2023-01-30T15:20:08.689Z,30.30
2023-01-30T15:23:20.856Z,25.20
2023-01-30T15:26:10.228Z,31.80
2023-01-30T15:28:56.599Z,28.73
2023-01-30T15:31:25.201Z,30.40
2023-01-30T15:33:57.155Z,33.20
2023-01-30T15:36:36.668Z,32.10
2023-01-30T15:39:26.548Z,24.67
2023-01-30T15:42:08.499Z,28.48
2023-01-30T15:47:16.851Z,36.63
2023-01-30T15:50:01.892Z,30.35
2023-01-30T15:52:52.010Z,22.95
2023-01-30T15:55:30.509Z,26.65
2023-01-30T15:58:19.395Z,27.08
2023-01-30T16:00:55.873Z,32.30
2023-01-30T16:03:35.826Z,25.02
2023-01-30T16:06:05.366Z,28.83
2023-01-30T16:08:37.209Z,29.15
2023-01-30T16:11:05.786Z,25.67
2023-01-30T16:13:35.801Z,21.15
2023-01-30T16:16:19.140Z,23.45
2023-01-30T16:18:55.936Z,24.13
2023-01-30T16:21:50.720Z,26.70
2023-01-30T16:24:25.255Z,23.95
2023-01-30T16:27:07.174Z,29.20
2023-01-30T16:29:53.477Z,33.28
2023-01-30T16:32:30.925Z,33.13
2023-01-30T16:35:26.883Z,26.08
2023-01-30T16:38:00.320Z,37.50
2023-01-30T16:40:45.381Z,29.70
2023-01-30T16:43:23.639Z,27.83
2023-01-30T16:46:27.383Z,31.25
2023-01-30T16:49:06.580Z,33.72
2023-01-30T16:51:37.667Z,38.75
2023-01-30T16:54:16.592Z,30.35
2023-01-30T16:56:51.688Z,25.23
2023-01-30T16:59:28.391Z,28.92
2023-01-30T17:02:00.283Z,32.55
2023-01-30T17:04:35.920Z,29.13
2023-01-30T17:07:05.496Z,40.65
2023-01-30T17:09:47.785Z,31.52
2023-01-30T17:12:30.767Z,31.77
2023-01-30T17:15:15.726Z,35.63
2023-01-30T17:17:45.738Z,35.50
2023-01-30T17:20:20.605Z,34.88
2023-01-30T17:22:58.234Z,33.42
2023-01-30T17:25:39.713Z,35.72
2023-01-30T17:28:21.554Z,23.45
2023-01-30T17:33:21.521Z,24.50
2023-01-30T17:35:50.837Z,26.63
2023-01-30T17:38:20.592Z,28.65
2023-01-30T17:40:50.438Z,28.75
2023-01-30T17:43:19.389Z,30.08
2023-01-30T17:45:50.853Z,23.23
2023-01-30T17:48:19.721Z,28.30
2023-01-30T17:50:48.641Z,29.60
2023-01-30T17:53:17.585Z,31.02
2023-01-30T17:55:46.896Z,35.13
2023-01-30T17:58:18.351Z,30.02
2023-01-30T18:00:47.092Z,35.67
2023-01-30T18:03:15.597Z,24.23
2023-01-30T18:05:44.606Z,32.95
2023-01-30T18:08:14.492Z,33.58
2023-01-30T18:10:43.189Z,30.13
2023-01-30T18:13:11.876Z,28.05
2023-01-30T18:15:41.093Z,29.40
2023-01-30T18:18:16.584Z,29.33
2023-01-30T18:20:46.314Z,33.88
2023-01-30T18:23:16.762Z,26.75
2023-01-30T18:25:45.566Z,35.65
2023-01-30T18:28:14.108Z,36.05
2023-01-30T18:30:42.747Z,40.03
2023-01-30T18:33:12.215Z,34.95
2023-01-30T18:35:42.297Z,39.55
2023-01-30T18:38:11.906Z,28.27
2023-01-30T18:40:41.580Z,28.77
2023-01-30T18:43:10.709Z,32.97
2023-01-30T18:45:39.749Z,29.13
2023-01-30T18:48:09.344Z,32.88
2023-01-30T18:50:42.182Z,29.40
2023-01-30T18:53:12.616Z,29.10
2023-01-30T18:55:51.014Z,31.05
2023-01-30T18:58:26.016Z,31.90
2023-01-30T19:00:58.928Z,36.50
2023-01-30T19:03:29.257Z,30.30
2023-01-30T19:06:02.677Z,37.42
2023-01-30T19:08:32.608Z,33.85
2023-01-30T19:11:41.976Z,31.17
2023-01-30T19:14:12.187Z,30.45
2023-01-30T19:16:42.549Z,36.88
2023-01-30T19:19:12.054Z,32.63
2023-01-30T19:21:42.546Z,29.23
2023-01-30T19:24:17.173Z,28.75
2023-01-30T19:26:48.444Z,31.05
2023-01-30T19:29:19.554Z,28.80
2023-01-30T19:31:49.781Z,30.95
2023-01-30T19:34:20.905Z,25.75
2023-01-30T19:36:50.577Z,27.05
2023-01-30T19:39:20.111Z,31.45
2023-01-30T19:41:49.471Z,29.98
2023-01-30T19:44:19.075Z,21.80
2023-01-30T19:46:50.212Z,32.15
2023-01-30T19:49:20.662Z,19.02
2023-01-30T19:51:52.700Z,22.35
2023-01-30T19:54:23.782Z,29.75
2023-01-30T19:56:53.572Z,22.02
2023-01-30T19:59:23.959Z,25.92
2023-01-30T20:01:55.181Z,24.35
2023-01-30T20:04:24.272Z,27.27
2023-01-30T20:06:52.475Z,29.65
2023-01-30T20:09:30.560Z,24.42
2023-01-30T20:12:05.512Z,20.90
2023-01-30T20:14:38.965Z,26.35
2023-01-30T20:17:08.351Z,25.02
2023-01-30T20:19:37.899Z,26.48
2023-01-30T20:22:09.234Z,26.70
2023-01-30T20:24:38.973Z,25.42
2023-01-30T20:27:11.056Z,22.90
2023-01-30T20:29:40.299Z,26.00
2023-01-30T20:32:09.473Z,27.00
2023-01-30T20:34:38.606Z,20.23
2023-01-30T20:37:06.956Z,23.67
2023-01-30T20:39:35.427Z,26.05
2023-01-30T20:42:04.531Z,23.92
2023-01-30T20:44:36.190Z,28.40
2023-01-30T20:47:04.637Z,26.90
2023-01-30T20:49:33.195Z,29.13
2023-01-30T20:52:01.567Z,27.88
2023-01-30T20:54:29.723Z,26.60
2023-01-30T20:56:58.570Z,29.80
2023-01-30T20:59:28.935Z,29.85
2023-01-30T21:01:57.420Z,22.88
2023-01-30T21:04:29.309Z,23.85
2023-01-30T21:06:57.793Z,27.70
2023-01-30T21:09:26.227Z,25.77
2023-01-30T21:11:55.662Z,26.88
2023-01-30T21:14:26.526Z,24.40
2023-01-30T21:16:55.649Z,28.90
2023-01-30T21:19:24.276Z,24.38
2023-01-30T21:21:55.329Z,25.40
2023-01-30T21:24:28.104Z,22.85
2023-01-30T21:26:57.407Z,27.85
2023-01-30T21:29:28.751Z,19.65
2023-01-30T21:31:58.759Z,18.58
2023-01-30T21:34:27.129Z,24.85
2023-01-30T21:37:15.762Z,25.55
2023-01-30T21:40:04.304Z,27.30
2023-01-30T21:42:51.213Z,28.05
2023-01-30T21:45:21.356Z,28.50
2023-01-30T21:47:54.380Z,28.33
2023-01-30T21:50:22.685Z,26.75
2023-01-30T21:52:50.681Z,25.75
2023-01-30T21:55:19.213Z,29.17
2023-01-30T21:57:47.541Z,27.00
2023-01-30T22:00:15.917Z,22.45
2023-01-30T22:02:44.423Z,25.42
2023-01-30T22:05:13.098Z,23.10
2023-01-30T22:07:41.339Z,27.27
2023-01-30T22:10:10.571Z,20.83
2023-01-30T22:12:40.339Z,25.02
2023-01-30T22:15:10.079Z,20.23
2023-01-30T22:17:38.658Z,23.08
2023-01-30T22:20:10.407Z,22.52
2023-01-30T22:25:08.084Z,24.60
2023-01-30T22:27:38.508Z,22.20
2023-01-30T22:30:07.918Z,23.75
2023-01-30T22:32:38.335Z,24.98
2023-01-30T22:35:09.825Z,22.40
2023-01-30T22:37:38.724Z,23.65
2023-01-30T22:40:08.399Z,24.20
2023-01-30T22:42:37.374Z,23.08
2023-01-30T22:45:06.556Z,27.00
2023-01-30T22:47:34.671Z,22.70
2023-01-30T22:50:04.539Z,23.92
2023-01-30T22:52:33.413Z,27.05
2023-01-30T22:55:02.632Z,25.30
2023-01-30T22:57:31.563Z,21.88
2023-01-30T23:00:01.577Z,24.70
2023-01-30T23:02:31.452Z,25.00
2023-01-30T23:05:03.907Z,19.75
2023-01-30T23:07:34.788Z,24.23
2023-01-30T23:10:04.538Z,22.43
2023-01-30T23:12:50.939Z,22.88
2023-01-30T23:15:20.615Z,23.25
2023-01-30T23:18:07.808Z,26.55
2023-01-30T23:20:36.690Z,24.38
2023-01-30T23:23:07.241Z,29.08
2023-01-30T23:25:41.328Z,20.27
2023-01-30T23:28:09.983Z,19.40
2023-01-30T23:30:39.321Z,26.10
2023-01-30T23:33:07.996Z,21.90
2023-01-30T23:35:36.629Z,21.65
2023-01-30T23:38:16.903Z,21.67
2023-01-30T23:40:49.195Z,21.30
2023-01-30T23:43:17.528Z,21.45
2023-01-30T23:45:45.873Z,25.90
2023-01-30T23:48:14.163Z,24.25
2023-01-30T23:50:42.308Z,22.80
2023-01-30T23:53:10.919Z,20.60
2023-01-30T23:55:38.850Z,21.77
2023-01-30T23:58:06.910Z,20.52
